sensor_id;sensor_type;location;lat;lon;timestamp;P1;durP1;ratioP1;P2;durP2;ratioP2
22715;SDS011;11525;51.152;4.456;2024-03-29T00:00:45;6.75;;;2.30;;
22715;SDS011;11525;51.152;4.456;2024-03-29T00:03:11;3.60;;;1.90;;
22715;SDS011;11525;51.152;4.456;2024-03-29T00:05:37;9.38;;;2.60;;
22715;SDS011;11525;51.152;4.456;2024-03-29T00:08:03;4.90;;;2.17;;
22715;SDS011;11525;51.152;4.456;2024-03-29T00:10:29;5.95;;;2.03;;
22715;SDS011;11525;51.152;4.456;2024-03-29T00:12:55;7.68;;;2.28;;
22715;SDS011;11525;51.152;4.456;2024-03-29T00:15:20;6.15;;;2.60;;
22715;SDS011;11525;51.152;4.456;2024-03-29T00:17:46;6.38;;;2.35;;
22715;SDS011;11525;51.152;4.456;2024-03-29T00:20:11;7.57;;;2.35;;
22715;SDS011;11525;51.152;4.456;2024-03-29T00:22:37;5.43;;;2.45;;
22715;SDS011;11525;51.152;4.456;2024-03-29T00:25:03;7.68;;;2.15;;
22715;SDS011;11525;51.152;4.456;2024-03-29T00:27:29;9.57;;;3.03;;
22715;SDS011;11525;51.152;4.456;2024-03-29T00:29:55;7.20;;;2.22;;
22715;SDS011;11525;51.152;4.456;2024-03-29T00:32:21;4.60;;;2.15;;
22715;SDS011;11525;51.152;4.456;2024-03-29T00:34:49;5.25;;;2.35;;
22715;SDS011;11525;51.152;4.456;2024-03-29T00:37:15;5.38;;;2.30;;
22715;SDS011;11525;51.152;4.456;2024-03-29T00:39:41;8.20;;;2.50;;
22715;SDS011;11525;51.152;4.456;2024-03-29T00:42:09;4.30;;;2.00;;
22715;SDS011;11525;51.152;4.456;2024-03-29T00:44:37;4.82;;;2.08;;
22715;SDS011;11525;51.152;4.456;2024-03-29T00:47:12;3.75;;;1.92;;
22715;SDS011;11525;51.152;4.456;2024-03-29T00:49:38;7.57;;;2.55;;
22715;SDS011;11525;51.152;4.456;2024-03-29T00:52:04;8.30;;;3.30;;
22715;SDS011;11525;51.152;4.456;2024-03-29T00:54:30;5.30;;;2.35;;
22715;SDS011;11525;51.152;4.456;2024-03-29T00:56:56;7.25;;;2.53;;
22715;SDS011;11525;51.152;4.456;2024-03-29T00:59:22;5.68;;;2.40;;
22715;SDS011;11525;51.152;4.456;2024-03-29T01:01:47;6.00;;;2.15;;
22715;SDS011;11525;51.152;4.456;2024-03-29T01:04:14;5.35;;;2.40;;
22715;SDS011;11525;51.152;4.456;2024-03-29T01:06:40;4.22;;;2.05;;
22715;SDS011;11525;51.152;4.456;2024-03-29T01:09:06;4.85;;;2.25;;
22715;SDS011;11525;51.152;4.456;2024-03-29T01:11:32;5.05;;;2.38;;
22715;SDS011;11525;51.152;4.456;2024-03-29T01:13:58;8.15;;;2.08;;
22715;SDS011;11525;51.152;4.456;2024-03-29T01:16:23;6.47;;;2.13;;
22715;SDS011;11525;51.152;4.456;2024-03-29T01:18:49;6.13;;;2.30;;
22715;SDS011;11525;51.152;4.456;2024-03-29T01:21:17;7.55;;;2.78;;
22715;SDS011;11525;51.152;4.456;2024-03-29T01:23:43;4.85;;;2.10;;
22715;SDS011;11525;51.152;4.456;2024-03-29T01:26:09;7.07;;;2.45;;
22715;SDS011;11525;51.152;4.456;2024-03-29T01:28:37;4.97;;;2.50;;
22715;SDS011;11525;51.152;4.456;2024-03-29T01:31:04;3.63;;;2.00;;
22715;SDS011;11525;51.152;4.456;2024-03-29T01:33:30;3.20;;;2.17;;
22715;SDS011;11525;51.152;4.456;2024-03-29T01:36:02;5.57;;;2.33;;
22715;SDS011;11525;51.152;4.456;2024-03-29T01:38:30;3.90;;;1.80;;
22715;SDS011;11525;51.152;4.456;2024-03-29T01:40:56;4.15;;;2.00;;
22715;SDS011;11525;51.152;4.456;2024-03-29T01:43:22;5.80;;;2.28;;
22715;SDS011;11525;51.152;4.456;2024-03-29T01:45:48;7.30;;;2.40;;
22715;SDS011;11525;51.152;4.456;2024-03-29T01:48:16;2.70;;;1.65;;
22715;SDS011;11525;51.152;4.456;2024-03-29T01:50:42;7.18;;;1.80;;
22715;SDS011;11525;51.152;4.456;2024-03-29T01:53:10;5.47;;;1.73;;
22715;SDS011;11525;51.152;4.456;2024-03-29T01:55:36;3.88;;;1.52;;
22715;SDS011;11525;51.152;4.456;2024-03-29T01:58:03;5.22;;;2.00;;
22715;SDS011;11525;51.152;4.456;2024-03-29T02:00:30;6.97;;;2.28;;
22715;SDS011;11525;51.152;4.456;2024-03-29T02:02:57;5.18;;;1.98;;
22715;SDS011;11525;51.152;4.456;2024-03-29T02:05:22;4.68;;;1.83;;
22715;SDS011;11525;51.152;4.456;2024-03-29T02:07:49;2.03;;;1.70;;
22715;SDS011;11525;51.152;4.456;2024-03-29T02:10:16;3.92;;;1.90;;
22715;SDS011;11525;51.152;4.456;2024-03-29T02:12:41;2.20;;;1.55;;
22715;SDS011;11525;51.152;4.456;2024-03-29T02:15:07;2.65;;;1.60;;
22715;SDS011;11525;51.152;4.456;2024-03-29T02:17:33;3.90;;;1.58;;
22715;SDS011;11525;51.152;4.456;2024-03-29T02:19:59;7.43;;;2.08;;
22715;SDS011;11525;51.152;4.456;2024-03-29T02:22:24;3.47;;;2.13;;
22715;SDS011;11525;51.152;4.456;2024-03-29T02:24:52;4.78;;;1.63;;
22715;SDS011;11525;51.152;4.456;2024-03-29T02:27:19;5.72;;;1.77;;
22715;SDS011;11525;51.152;4.456;2024-03-29T02:29:46;2.42;;;1.80;;
22715;SDS011;11525;51.152;4.456;2024-03-29T02:32:12;2.00;;;1.42;;
22715;SDS011;11525;51.152;4.456;2024-03-29T02:34:38;2.60;;;1.80;;
22715;SDS011;11525;51.152;4.456;2024-03-29T02:37:03;3.55;;;1.60;;
22715;SDS011;11525;51.152;4.456;2024-03-29T02:39:29;2.78;;;1.80;;
22715;SDS011;11525;51.152;4.456;2024-03-29T02:41:55;2.08;;;1.60;;
22715;SDS011;11525;51.152;4.456;2024-03-29T02:44:21;1.85;;;1.67;;
22715;SDS011;11525;51.152;4.456;2024-03-29T02:46:46;1.60;;;1.50;;
22715;SDS011;11525;51.152;4.456;2024-03-29T02:49:12;2.53;;;1.60;;
22715;SDS011;11525;51.152;4.456;2024-03-29T02:51:38;1.58;;;1.25;;
22715;SDS011;11525;51.152;4.456;2024-03-29T02:54:03;2.03;;;1.77;;
22715;SDS011;11525;51.152;4.456;2024-03-29T02:56:29;2.63;;;1.40;;
22715;SDS011;11525;51.152;4.456;2024-03-29T02:58:55;1.40;;;1.30;;
22715;SDS011;11525;51.152;4.456;2024-03-29T03:01:21;2.03;;;1.30;;
22715;SDS011;11525;51.152;4.456;2024-03-29T03:03:47;2.25;;;1.38;;
22715;SDS011;11525;51.152;4.456;2024-03-29T03:06:12;1.40;;;1.30;;
22715;SDS011;11525;51.152;4.456;2024-03-29T03:08:38;1.60;;;1.25;;
22715;SDS011;11525;51.152;4.456;2024-03-29T03:11:22;1.40;;;1.30;;
22715;SDS011;11525;51.152;4.456;2024-03-29T03:13:48;1.77;;;1.20;;
22715;SDS011;11525;51.152;4.456;2024-03-29T03:16:13;1.50;;;1.40;;
22715;SDS011;11525;51.152;4.456;2024-03-29T03:18:39;1.50;;;1.40;;
22715;SDS011;11525;51.152;4.456;2024-03-29T03:21:05;2.55;;;1.60;;
22715;SDS011;11525;51.152;4.456;2024-03-29T03:23:31;3.13;;;1.40;;
22715;SDS011;11525;51.152;4.456;2024-03-29T03:25:57;1.50;;;1.40;;
22715;SDS011;11525;51.152;4.456;2024-03-29T03:28:24;1.63;;;1.52;;
22715;SDS011;11525;51.152;4.456;2024-03-29T03:30:50;1.65;;;1.50;;
22715;SDS011;11525;51.152;4.456;2024-03-29T03:33:19;1.77;;;1.67;;
22715;SDS011;11525;51.152;4.456;2024-03-29T03:35:45;2.78;;;1.70;;
22715;SDS011;11525;51.152;4.456;2024-03-29T03:38:12;2.38;;;1.90;;
22715;SDS011;11525;51.152;4.456;2024-03-29T03:40:37;4.35;;;2.28;;
22715;SDS011;11525;51.152;4.456;2024-03-29T03:43:04;2.20;;;2.00;;
22715;SDS011;11525;51.152;4.456;2024-03-29T03:45:37;3.50;;;1.60;;
22715;SDS011;11525;51.152;4.456;2024-03-29T03:48:07;3.15;;;1.90;;
22715;SDS011;11525;51.152;4.456;2024-03-29T03:50:35;5.00;;;2.30;;
22715;SDS011;11525;51.152;4.456;2024-03-29T03:53:01;8.55;;;2.05;;
22715;SDS011;11525;51.152;4.456;2024-03-29T03:55:27;4.55;;;1.90;;
22715;SDS011;11525;51.152;4.456;2024-03-29T03:57:53;3.47;;;2.10;;
22715;SDS011;11525;51.152;4.456;2024-03-29T04:00:19;4.88;;;2.20;;
22715;SDS011;11525;51.152;4.456;2024-03-29T04:02:49;3.03;;;1.98;;
22715;SDS011;11525;51.152;4.456;2024-03-29T04:05:18;5.53;;;2.17;;
22715;SDS011;11525;51.152;4.456;2024-03-29T04:07:45;4.55;;;2.38;;
22715;SDS011;11525;51.152;4.456;2024-03-29T04:10:11;3.35;;;1.80;;
22715;SDS011;11525;51.152;4.456;2024-03-29T04:12:37;5.65;;;2.35;;
22715;SDS011;11525;51.152;4.456;2024-03-29T04:15:03;4.20;;;1.90;;
22715;SDS011;11525;51.152;4.456;2024-03-29T04:17:30;3.85;;;2.10;;
22715;SDS011;11525;51.152;4.456;2024-03-29T04:19:56;2.03;;;1.80;;
22715;SDS011;11525;51.152;4.456;2024-03-29T04:22:22;4.13;;;1.77;;
22715;SDS011;11525;51.152;4.456;2024-03-29T04:24:48;5.90;;;2.22;;
22715;SDS011;11525;51.152;4.456;2024-03-29T04:27:14;3.85;;;1.90;;
22715;SDS011;11525;51.152;4.456;2024-03-29T04:29:40;2.78;;;2.00;;
22715;SDS011;11525;51.152;4.456;2024-03-29T04:32:06;5.65;;;1.92;;
22715;SDS011;11525;51.152;4.456;2024-03-29T04:34:31;4.47;;;2.00;;
22715;SDS011;11525;51.152;4.456;2024-03-29T04:36:58;3.35;;;1.80;;
22715;SDS011;11525;51.152;4.456;2024-03-29T04:39:24;3.78;;;2.25;;
22715;SDS011;11525;51.152;4.456;2024-03-29T04:41:50;4.45;;;2.28;;
22715;SDS011;11525;51.152;4.456;2024-03-29T04:44:23;6.03;;;2.58;;
22715;SDS011;11525;51.152;4.456;2024-03-29T04:46:53;5.43;;;2.22;;
22715;SDS011;11525;51.152;4.456;2024-03-29T04:49:19;5.85;;;2.33;;
22715;SDS011;11525;51.152;4.456;2024-03-29T04:51:49;6.25;;;2.75;;
22715;SDS011;11525;51.152;4.456;2024-03-29T04:54:18;7.22;;;2.45;;
22715;SDS011;11525;51.152;4.456;2024-03-29T04:56:44;5.10;;;2.20;;
22715;SDS011;11525;51.152;4.456;2024-03-29T04:59:10;4.53;;;2.15;;
22715;SDS011;11525;51.152;4.456;2024-03-29T05:01:36;4.38;;;2.10;;
22715;SDS011;11525;51.152;4.456;2024-03-29T05:04:02;4.40;;;1.98;;
22715;SDS011;11525;51.152;4.456;2024-03-29T05:06:28;4.97;;;2.58;;
22715;SDS011;11525;51.152;4.456;2024-03-29T05:08:54;5.28;;;2.22;;
22715;SDS011;11525;51.152;4.456;2024-03-29T05:11:20;3.75;;;2.05;;
22715;SDS011;11525;51.152;4.456;2024-03-29T05:13:46;3.95;;;2.00;;
22715;SDS011;11525;51.152;4.456;2024-03-29T05:16:12;5.07;;;2.50;;
22715;SDS011;11525;51.152;4.456;2024-03-29T05:18:38;4.82;;;2.10;;
22715;SDS011;11525;51.152;4.456;2024-03-29T05:21:04;4.72;;;2.30;;
22715;SDS011;11525;51.152;4.456;2024-03-29T05:23:29;3.55;;;2.58;;
22715;SDS011;11525;51.152;4.456;2024-03-29T05:25:55;4.45;;;2.50;;
22715;SDS011;11525;51.152;4.456;2024-03-29T05:28:21;3.28;;;2.10;;
22715;SDS011;11525;51.152;4.456;2024-03-29T05:30:48;4.50;;;2.03;;
22715;SDS011;11525;51.152;4.456;2024-03-29T05:33:13;4.80;;;2.42;;
22715;SDS011;11525;51.152;4.456;2024-03-29T05:35:40;2.50;;;1.60;;
22715;SDS011;11525;51.152;4.456;2024-03-29T05:38:06;4.15;;;2.40;;
22715;SDS011;11525;51.152;4.456;2024-03-29T05:40:31;2.92;;;1.80;;
22715;SDS011;11525;51.152;4.456;2024-03-29T05:42:57;5.50;;;2.13;;
22715;SDS011;11525;51.152;4.456;2024-03-29T05:45:27;3.17;;;1.75;;
22715;SDS011;11525;51.152;4.456;2024-03-29T05:47:54;3.53;;;2.75;;
22715;SDS011;11525;51.152;4.456;2024-03-29T05:50:21;2.75;;;2.10;;
22715;SDS011;11525;51.152;4.456;2024-03-29T05:52:48;2.75;;;2.03;;
22715;SDS011;11525;51.152;4.456;2024-03-29T05:55:16;2.85;;;1.77;;
22715;SDS011;11525;51.152;4.456;2024-03-29T05:57:41;2.90;;;1.80;;
22715;SDS011;11525;51.152;4.456;2024-03-29T06:00:10;4.28;;;1.98;;
22715;SDS011;11525;51.152;4.456;2024-03-29T06:02:36;2.85;;;2.13;;
22715;SDS011;11525;51.152;4.456;2024-03-29T06:05:02;4.10;;;2.03;;
22715;SDS011;11525;51.152;4.456;2024-03-29T06:07:29;2.28;;;1.60;;
22715;SDS011;11525;51.152;4.456;2024-03-29T06:09:58;2.50;;;2.20;;
22715;SDS011;11525;51.152;4.456;2024-03-29T06:12:25;3.05;;;2.53;;
22715;SDS011;11525;51.152;4.456;2024-03-29T06:14:51;4.45;;;2.28;;
22715;SDS011;11525;51.152;4.456;2024-03-29T06:17:35;3.20;;;2.15;;
22715;SDS011;11525;51.152;4.456;2024-03-29T06:20:02;4.43;;;2.72;;
22715;SDS011;11525;51.152;4.456;2024-03-29T06:22:29;5.10;;;2.10;;
22715;SDS011;11525;51.152;4.456;2024-03-29T06:24:55;3.78;;;2.40;;
22715;SDS011;11525;51.152;4.456;2024-03-29T06:27:29;2.80;;;2.03;;
22715;SDS011;11525;51.152;4.456;2024-03-29T06:29:56;2.35;;;1.75;;
22715;SDS011;11525;51.152;4.456;2024-03-29T06:32:21;3.78;;;1.77;;
22715;SDS011;11525;51.152;4.456;2024-03-29T06:34:47;4.97;;;1.92;;
22715;SDS011;11525;51.152;4.456;2024-03-29T06:37:13;2.00;;;1.90;;
22715;SDS011;11525;51.152;4.456;2024-03-29T06:39:39;2.58;;;1.83;;
22715;SDS011;11525;51.152;4.456;2024-03-29T06:42:05;5.30;;;2.55;;
22715;SDS011;11525;51.152;4.456;2024-03-29T06:44:34;3.08;;;2.10;;
22715;SDS011;11525;51.152;4.456;2024-03-29T06:47:01;4.18;;;1.90;;
22715;SDS011;11525;51.152;4.456;2024-03-29T06:49:27;2.22;;;1.80;;
22715;SDS011;11525;51.152;4.456;2024-03-29T06:51:53;3.38;;;2.50;;
22715;SDS011;11525;51.152;4.456;2024-03-29T06:54:20;4.28;;;2.67;;
22715;SDS011;11525;51.152;4.456;2024-03-29T06:56:51;5.25;;;3.00;;
22715;SDS011;11525;51.152;4.456;2024-03-29T06:59:18;4.45;;;2.15;;
22715;SDS011;11525;51.152;4.456;2024-03-29T07:01:43;4.80;;;2.50;;
22715;SDS011;11525;51.152;4.456;2024-03-29T07:04:09;3.15;;;2.28;;
22715;SDS011;11525;51.152;4.456;2024-03-29T07:06:35;3.17;;;2.20;;
22715;SDS011;11525;51.152;4.456;2024-03-29T07:09:03;2.50;;;1.98;;
22715;SDS011;11525;51.152;4.456;2024-03-29T07:11:29;2.35;;;2.05;;
22715;SDS011;11525;51.152;4.456;2024-03-29T07:13:55;3.10;;;1.90;;
22715;SDS011;11525;51.152;4.456;2024-03-29T07:16:20;4.78;;;2.53;;
22715;SDS011;11525;51.152;4.456;2024-03-29T07:18:46;3.33;;;2.17;;
22715;SDS011;11525;51.152;4.456;2024-03-29T07:21:12;3.30;;;2.30;;
22715;SDS011;11525;51.152;4.456;2024-03-29T07:23:37;2.65;;;2.00;;
22715;SDS011;11525;51.152;4.456;2024-03-29T07:26:04;3.05;;;2.17;;
22715;SDS011;11525;51.152;4.456;2024-03-29T07:28:30;3.15;;;2.13;;
22715;SDS011;11525;51.152;4.456;2024-03-29T07:30:56;3.05;;;2.00;;
22715;SDS011;11525;51.152;4.456;2024-03-29T07:33:22;2.53;;;2.30;;
22715;SDS011;11525;51.152;4.456;2024-03-29T07:35:51;2.38;;;2.15;;
22715;SDS011;11525;51.152;4.456;2024-03-29T07:38:18;4.45;;;2.75;;
22715;SDS011;11525;51.152;4.456;2024-03-29T07:40:46;5.07;;;2.25;;
22715;SDS011;11525;51.152;4.456;2024-03-29T07:43:12;2.53;;;2.30;;
22715;SDS011;11525;51.152;4.456;2024-03-29T07:45:42;4.88;;;2.20;;
22715;SDS011;11525;51.152;4.456;2024-03-29T07:48:11;4.47;;;2.85;;
22715;SDS011;11525;51.152;4.456;2024-03-29T07:50:38;2.72;;;2.30;;
22715;SDS011;11525;51.152;4.456;2024-03-29T07:53:08;4.03;;;2.45;;
22715;SDS011;11525;51.152;4.456;2024-03-29T07:55:37;3.25;;;2.60;;
22715;SDS011;11525;51.152;4.456;2024-03-29T07:58:05;4.45;;;2.58;;
22715;SDS011;11525;51.152;4.456;2024-03-29T08:00:31;5.43;;;3.00;;
22715;SDS011;11525;51.152;4.456;2024-03-29T08:02:57;4.07;;;2.92;;
22715;SDS011;11525;51.152;4.456;2024-03-29T08:05:23;8.00;;;2.70;;
22715;SDS011;11525;51.152;4.456;2024-03-29T08:07:49;3.83;;;2.47;;
22715;SDS011;11525;51.152;4.456;2024-03-29T08:10:15;5.68;;;2.38;;
22715;SDS011;11525;51.152;4.456;2024-03-29T08:12:41;7.00;;;3.00;;
22715;SDS011;11525;51.152;4.456;2024-03-29T08:15:06;4.50;;;2.35;;
22715;SDS011;11525;51.152;4.456;2024-03-29T08:17:33;3.22;;;2.13;;
22715;SDS011;11525;51.152;4.456;2024-03-29T08:19:59;5.15;;;2.20;;
22715;SDS011;11525;51.152;4.456;2024-03-29T08:22:25;3.10;;;1.83;;
22715;SDS011;11525;51.152;4.456;2024-03-29T08:24:51;2.85;;;2.03;;
22715;SDS011;11525;51.152;4.456;2024-03-29T08:27:16;2.47;;;1.83;;
22715;SDS011;11525;51.152;4.456;2024-03-29T08:29:42;5.97;;;2.55;;
22715;SDS011;11525;51.152;4.456;2024-03-29T08:32:08;5.20;;;2.42;;
22715;SDS011;11525;51.152;4.456;2024-03-29T08:34:37;4.82;;;2.15;;
22715;SDS011;11525;51.152;4.456;2024-03-29T08:37:03;4.55;;;2.40;;
22715;SDS011;11525;51.152;4.456;2024-03-29T08:39:29;6.05;;;2.75;;
22715;SDS011;11525;51.152;4.456;2024-03-29T08:41:56;2.97;;;2.30;;
22715;SDS011;11525;51.152;4.456;2024-03-29T08:44:22;3.63;;;2.10;;
22715;SDS011;11525;51.152;4.456;2024-03-29T08:46:49;4.72;;;2.45;;
22715;SDS011;11525;51.152;4.456;2024-03-29T08:49:15;6.57;;;2.63;;
22715;SDS011;11525;51.152;4.456;2024-03-29T08:51:41;4.93;;;2.50;;
22715;SDS011;11525;51.152;4.456;2024-03-29T08:54:07;3.05;;;2.20;;
22715;SDS011;11525;51.152;4.456;2024-03-29T08:56:32;5.45;;;2.17;;
22715;SDS011;11525;51.152;4.456;2024-03-29T08:59:02;4.75;;;2.47;;
22715;SDS011;11525;51.152;4.456;2024-03-29T09:01:32;6.28;;;2.55;;
22715;SDS011;11525;51.152;4.456;2024-03-29T09:03:59;3.72;;;2.22;;
22715;SDS011;11525;51.152;4.456;2024-03-29T09:06:24;4.10;;;2.17;;
22715;SDS011;11525;51.152;4.456;2024-03-29T09:08:50;4.72;;;2.00;;
22715;SDS011;11525;51.152;4.456;2024-03-29T09:11:16;4.82;;;2.20;;
22715;SDS011;11525;51.152;4.456;2024-03-29T09:13:41;5.05;;;2.47;;
22715;SDS011;11525;51.152;4.456;2024-03-29T09:16:07;3.83;;;2.33;;
22715;SDS011;11525;51.152;4.456;2024-03-29T09:18:33;2.85;;;1.95;;
22715;SDS011;11525;51.152;4.456;2024-03-29T09:20:59;3.83;;;2.08;;
22715;SDS011;11525;51.152;4.456;2024-03-29T09:23:25;3.25;;;1.95;;
22715;SDS011;11525;51.152;4.456;2024-03-29T09:25:55;3.90;;;2.30;;
22715;SDS011;11525;51.152;4.456;2024-03-29T09:28:24;4.97;;;2.70;;
22715;SDS011;11525;51.152;4.456;2024-03-29T09:30:57;3.58;;;2.25;;
22715;SDS011;11525;51.152;4.456;2024-03-29T09:33:24;5.20;;;2.45;;
22715;SDS011;11525;51.152;4.456;2024-03-29T09:35:49;3.70;;;2.38;;
22715;SDS011;11525;51.152;4.456;2024-03-29T09:38:15;5.03;;;2.70;;
22715;SDS011;11525;51.152;4.456;2024-03-29T09:40:41;4.70;;;2.47;;
22715;SDS011;11525;51.152;4.456;2024-03-29T09:43:07;21.88;;;5.35;;
22715;SDS011;11525;51.152;4.456;2024-03-29T09:45:35;5.95;;;3.38;;
22715;SDS011;11525;51.152;4.456;2024-03-29T09:48:05;45.03;;;8.30;;
22715;SDS011;11525;51.152;4.456;2024-03-29T09:50:32;6.47;;;2.60;;
22715;SDS011;11525;51.152;4.456;2024-03-29T09:53:01;3.65;;;2.40;;
22715;SDS011;11525;51.152;4.456;2024-03-29T09:55:29;4.22;;;1.90;;
22715;SDS011;11525;51.152;4.456;2024-03-29T09:57:55;5.78;;;2.00;;
22715;SDS011;11525;51.152;4.456;2024-03-29T10:00:22;7.05;;;2.38;;
22715;SDS011;11525;51.152;4.456;2024-03-29T10:02:49;2.65;;;2.10;;
22715;SDS011;11525;51.152;4.456;2024-03-29T10:05:18;3.33;;;2.28;;
22715;SDS011;11525;51.152;4.456;2024-03-29T10:07:45;2.67;;;1.90;;
22715;SDS011;11525;51.152;4.456;2024-03-29T10:10:12;3.60;;;1.77;;
22715;SDS011;11525;51.152;4.456;2024-03-29T10:12:39;2.83;;;1.73;;
22715;SDS011;11525;51.152;4.456;2024-03-29T10:15:05;3.85;;;1.77;;
22715;SDS011;11525;51.152;4.456;2024-03-29T10:17:33;1.98;;;1.50;;
22715;SDS011;11525;51.152;4.456;2024-03-29T10:20:03;2.15;;;1.75;;
22715;SDS011;11525;51.152;4.456;2024-03-29T10:22:30;2.47;;;1.45;;
22715;SDS011;11525;51.152;4.456;2024-03-29T10:25:27;2.10;;;1.30;;
22715;SDS011;11525;51.152;4.456;2024-03-29T10:27:56;2.40;;;1.58;;
22715;SDS011;11525;51.152;4.456;2024-03-29T10:30:24;1.60;;;1.50;;
22715;SDS011;11525;51.152;4.456;2024-03-29T10:32:50;2.17;;;1.40;;
22715;SDS011;11525;51.152;4.456;2024-03-29T10:35:16;2.25;;;1.48;;
22715;SDS011;11525;51.152;4.456;2024-03-29T10:37:42;2.15;;;1.45;;
22715;SDS011;11525;51.152;4.456;2024-03-29T10:40:09;2.13;;;1.30;;
22715;SDS011;11525;51.152;4.456;2024-03-29T10:42:38;2.03;;;1.13;;
22715;SDS011;11525;51.152;4.456;2024-03-29T10:45:06;1.95;;;1.23;;
22715;SDS011;11525;51.152;4.456;2024-03-29T10:47:33;1.75;;;1.45;;
22715;SDS011;11525;51.152;4.456;2024-03-29T10:49:59;2.05;;;1.10;;
22715;SDS011;11525;51.152;4.456;2024-03-29T10:52:25;2.50;;;1.40;;
22715;SDS011;11525;51.152;4.456;2024-03-29T10:54:52;1.60;;;0.90;;
22715;SDS011;11525;51.152;4.456;2024-03-29T10:57:24;1.30;;;1.08;;
22715;SDS011;11525;51.152;4.456;2024-03-29T11:00:05;1.30;;;1.20;;
22715;SDS011;11525;51.152;4.456;2024-03-29T11:02:38;1.75;;;1.23;;
22715;SDS011;11525;51.152;4.456;2024-03-29T11:05:15;1.08;;;1.00;;
22715;SDS011;11525;51.152;4.456;2024-03-29T11:07:42;1.67;;;1.25;;
22715;SDS011;11525;51.152;4.456;2024-03-29T11:10:20;1.67;;;1.10;;
22715;SDS011;11525;51.152;4.456;2024-03-29T11:12:58;3.17;;;1.05;;
22715;SDS011;11525;51.152;4.456;2024-03-29T11:15:36;3.72;;;1.58;;
22715;SDS011;11525;51.152;4.456;2024-03-29T11:18:05;2.15;;;1.20;;
22715;SDS011;11525;51.152;4.456;2024-03-29T11:20:32;1.83;;;1.20;;
22715;SDS011;11525;51.152;4.456;2024-03-29T11:23:21;2.70;;;1.10;;
22715;SDS011;11525;51.152;4.456;2024-03-29T11:25:49;3.65;;;1.20;;
22715;SDS011;11525;51.152;4.456;2024-03-29T11:28:22;0.98;;;0.90;;
22715;SDS011;11525;51.152;4.456;2024-03-29T11:30:51;1.33;;;1.20;;
22715;SDS011;11525;51.152;4.456;2024-03-29T11:33:25;2.13;;;1.00;;
22715;SDS011;11525;51.152;4.456;2024-03-29T11:38:48;1.48;;;1.15;;
22715;SDS011;11525;51.152;4.456;2024-03-29T11:41:16;1.30;;;1.20;;
22715;SDS011;11525;51.152;4.456;2024-03-29T11:43:48;1.35;;;1.20;;
22715;SDS011;11525;51.152;4.456;2024-03-29T11:46:15;2.97;;;1.42;;
22715;SDS011;11525;51.152;4.456;2024-03-29T11:48:41;1.75;;;1.17;;
22715;SDS011;11525;51.152;4.456;2024-03-29T11:51:07;1.05;;;0.90;;
22715;SDS011;11525;51.152;4.456;2024-03-29T11:53:37;1.83;;;1.25;;
22715;SDS011;11525;51.152;4.456;2024-03-29T11:56:03;0.90;;;0.90;;
22715;SDS011;11525;51.152;4.456;2024-03-29T11:58:30;2.72;;;1.00;;
22715;SDS011;11525;51.152;4.456;2024-03-29T12:00:57;1.60;;;1.10;;
22715;SDS011;11525;51.152;4.456;2024-03-29T12:03:24;1.30;;;1.20;;
22715;SDS011;11525;51.152;4.456;2024-03-29T12:05:52;1.00;;;0.90;;
22715;SDS011;11525;51.152;4.456;2024-03-29T12:08:23;1.05;;;1.00;;
22715;SDS011;11525;51.152;4.456;2024-03-29T12:10:49;2.00;;;1.00;;
22715;SDS011;11525;51.152;4.456;2024-03-29T12:13:16;3.45;;;1.20;;
22715;SDS011;11525;51.152;4.456;2024-03-29T12:15:42;2.70;;;1.00;;
22715;SDS011;11525;51.152;4.456;2024-03-29T12:18:08;2.95;;;0.95;;
22715;SDS011;11525;51.152;4.456;2024-03-29T12:20:34;0.85;;;0.85;;
22715;SDS011;11525;51.152;4.456;2024-03-29T12:23:02;1.35;;;1.10;;
22715;SDS011;11525;51.152;4.456;2024-03-29T12:25:29;1.08;;;0.95;;
22715;SDS011;11525;51.152;4.456;2024-03-29T12:27:56;1.95;;;1.20;;
22715;SDS011;11525;51.152;4.456;2024-03-29T12:30:24;1.48;;;1.23;;
22715;SDS011;11525;51.152;4.456;2024-03-29T12:35:43;1.10;;;1.00;;
22715;SDS011;11525;51.152;4.456;2024-03-29T12:38:11;0.98;;;0.90;;
22715;SDS011;11525;51.152;4.456;2024-03-29T12:40:43;1.17;;;0.90;;
22715;SDS011;11525;51.152;4.456;2024-03-29T12:43:12;1.70;;;0.88;;
22715;SDS011;11525;51.152;4.456;2024-03-29T12:45:39;1.45;;;0.80;;
22715;SDS011;11525;51.152;4.456;2024-03-29T12:50:45;1.00;;;0.90;;
22715;SDS011;11525;51.152;4.456;2024-03-29T12:53:12;1.00;;;0.90;;
22715;SDS011;11525;51.152;4.456;2024-03-29T12:55:39;0.90;;;0.90;;
22715;SDS011;11525;51.152;4.456;2024-03-29T12:58:10;1.88;;;0.90;;
22715;SDS011;11525;51.152;4.456;2024-03-29T13:00:37;1.55;;;1.10;;
22715;SDS011;11525;51.152;4.456;2024-03-29T13:03:04;1.15;;;0.98;;
22715;SDS011;11525;51.152;4.456;2024-03-29T13:05:30;1.52;;;1.00;;
22715;SDS011;11525;51.152;4.456;2024-03-29T13:08:03;2.00;;;1.08;;
22715;SDS011;11525;51.152;4.456;2024-03-29T13:10:30;1.02;;;0.93;;
22715;SDS011;11525;51.152;4.456;2024-03-29T13:12:56;1.58;;;1.10;;
22715;SDS011;11525;51.152;4.456;2024-03-29T13:15:22;2.00;;;1.08;;
22715;SDS011;11525;51.152;4.456;2024-03-29T13:17:55;1.88;;;1.13;;
22715;SDS011;11525;51.152;4.456;2024-03-29T13:20:22;1.67;;;1.05;;
22715;SDS011;11525;51.152;4.456;2024-03-29T13:22:48;3.15;;;1.40;;
22715;SDS011;11525;51.152;4.456;2024-03-29T13:25:16;1.25;;;0.95;;
22715;SDS011;11525;51.152;4.456;2024-03-29T13:27:42;1.90;;;1.40;;
22715;SDS011;11525;51.152;4.456;2024-03-29T13:30:11;1.33;;;1.20;;
22715;SDS011;11525;51.152;4.456;2024-03-29T13:32:41;1.35;;;1.17;;
22715;SDS011;11525;51.152;4.456;2024-03-29T13:35:09;3.53;;;1.15;;
22715;SDS011;11525;51.152;4.456;2024-03-29T13:37:38;1.65;;;1.20;;
22715;SDS011;11525;51.152;4.456;2024-03-29T13:40:06;1.00;;;0.93;;
22715;SDS011;11525;51.152;4.456;2024-03-29T13:42:32;2.03;;;1.30;;
22715;SDS011;11525;51.152;4.456;2024-03-29T13:44:58;0.90;;;0.90;;
22715;SDS011;11525;51.152;4.456;2024-03-29T13:47:23;2.35;;;1.10;;
22715;SDS011;11525;51.152;4.456;2024-03-29T13:49:49;2.15;;;1.17;;
22715;SDS011;11525;51.152;4.456;2024-03-29T13:52:19;1.15;;;1.02;;
22715;SDS011;11525;51.152;4.456;2024-03-29T13:54:45;2.08;;;1.20;;
22715;SDS011;11525;51.152;4.456;2024-03-29T13:57:15;1.10;;;1.10;;
22715;SDS011;11525;51.152;4.456;2024-03-29T13:59:41;3.45;;;1.33;;
22715;SDS011;11525;51.152;4.456;2024-03-29T14:02:17;1.02;;;1.00;;
22715;SDS011;11525;51.152;4.456;2024-03-29T14:04:44;1.88;;;1.17;;
22715;SDS011;11525;51.152;4.456;2024-03-29T14:07:10;5.50;;;1.30;;
22715;SDS011;11525;51.152;4.456;2024-03-29T14:09:38;2.92;;;1.35;;
22715;SDS011;11525;51.152;4.456;2024-03-29T14:12:05;1.90;;;1.00;;
22715;SDS011;11525;51.152;4.456;2024-03-29T14:14:31;1.65;;;1.00;;
22715;SDS011;11525;51.152;4.456;2024-03-29T14:16:57;2.03;;;0.95;;
22715;SDS011;11525;51.152;4.456;2024-03-29T14:19:23;1.40;;;0.90;;
22715;SDS011;11525;51.152;4.456;2024-03-29T14:21:49;1.63;;;0.90;;
22715;SDS011;11525;51.152;4.456;2024-03-29T14:24:14;2.50;;;1.10;;
22715;SDS011;11525;51.152;4.456;2024-03-29T14:26:40;2.08;;;1.10;;
22715;SDS011;11525;51.152;4.456;2024-03-29T14:29:09;1.30;;;1.00;;
22715;SDS011;11525;51.152;4.456;2024-03-29T14:31:37;1.23;;;1.10;;
22715;SDS011;11525;51.152;4.456;2024-03-29T14:34:02;3.25;;;1.20;;
22715;SDS011;11525;51.152;4.456;2024-03-29T14:36:28;1.52;;;1.10;;
22715;SDS011;11525;51.152;4.456;2024-03-29T14:38:57;1.92;;;1.13;;
22715;SDS011;11525;51.152;4.456;2024-03-29T14:41:25;2.17;;;1.20;;
22715;SDS011;11525;51.152;4.456;2024-03-29T14:43:51;1.33;;;1.15;;
22715;SDS011;11525;51.152;4.456;2024-03-29T14:46:18;1.15;;;1.05;;
22715;SDS011;11525;51.152;4.456;2024-03-29T14:48:46;2.28;;;1.17;;
22715;SDS011;11525;51.152;4.456;2024-03-29T14:51:12;1.30;;;1.20;;
22715;SDS011;11525;51.152;4.456;2024-03-29T14:53:37;2.40;;;1.20;;
22715;SDS011;11525;51.152;4.456;2024-03-29T14:56:03;1.20;;;1.10;;